PWSweather.com
Personal Weather Stations
Station Observations
KCOGRAND2
Redlands, Southcamp Road & Dakota Circle, Grand Junction, CO 81507

Redlands, Southcamp Road & Dakota CircleGrand Junction, CO 81507

Lat: 39.055, Lon: -108.637

Elevation: 4870

Station Type: RadioShack WX200

Latest ConditionsUpdated 5:08:40 PM MST Wednesday, Mar 4, 2015
Currently Today's Max Today's Min Today's Average
Temperature 40.3°F4.6°C 41.4°F5.2°C 25.3°F-3.7°C 32.8°F0.4°C
Dew Point -9.9°F-23.3°C 28.4°F-2.0°C -9.9°F-23.3°C 12.4°F-10.9°C
Winds 11.0 mph SSW17.7 kmh SSW 13.0 mph S20.9 kmh S - 5.2 mph 8.4 kmh
Wind Gusts 16.8 mph27.0 kmh 22.8 mph36.7 kmh - -
Humidity 11% 96% 11% 53%
Pressure 25.13 in851.0 mb 25.13 in851.0 mb 24.92 in843.9 mb -
Hour Temp Dew Point Humidity Winds Wind Gusts Pressure Precip Precip Rate Daily Precip Total
05:08 PM 40.3°F4.6°C -9.9°F-23.3°C 11% 11.0 mph SSW17.7 kmh SSW 16.8 mph27.0 kmh 25.13 in851.0 mb 0.00 in0.0 mm 0.00 in/hr0.0 mm/hr 0.00 in0.0 mm
05:03 PM 40.6°F4.8°C -9.8°F-23.2°C 11% 10.0 mph SSW16.1 kmh SSW 15.2 mph24.5 kmh 25.13 in851.0 mb 0.00 in0.0 mm 0.00 in/hr0.0 mm/hr 0.00 in0.0 mm
04:58 PM 40.6°F4.8°C -6.3°F-21.3°C 13% 9.0 mph SSW14.5 kmh SSW 15.2 mph24.5 kmh 25.13 in851.0 mb 0.00 in0.0 mm 0.00 in/hr0.0 mm/hr 0.00 in0.0 mm
04:53 PM 40.8°F4.9°C -6.2°F-21.2°C 13% 8.0 mph SSW12.9 kmh SSW 14.3 mph23.0 kmh 25.13 in851.0 mb 0.00 in0.0 mm 0.00 in/hr0.0 mm/hr 0.00 in0.0 mm
04:48 PM 41.0°F5.0°C -1.7°F-18.7°C 16% 8.0 mph SSW12.9 kmh SSW 11.2 mph18.0 kmh 25.13 in851.0 mb 0.00 in0.0 mm 0.00 in/hr0.0 mm/hr 0.00 in0.0 mm
04:43 PM 40.3°F4.6°C -2.4°F-19.1°C 16% 7.0 mph S11.3 kmh S 12.1 mph19.5 kmh 25.10 in850.0 mb 0.00 in0.0 mm 0.00 in/hr0.0 mm/hr 0.00 in0.0 mm
04:38 PM 39.7°F4.3°C -2.7°F-19.3°C 16% 6.0 mph S9.7 kmh S 9.2 mph14.8 kmh 25.10 in850.0 mb 0.00 in0.0 mm 0.00 in/hr0.0 mm/hr 0.00 in0.0 mm
04:33 PM 39.4°F4.1°C -3.1°F-19.5°C 16% 6.0 mph S9.7 kmh S 9.2 mph14.8 kmh 25.10 in850.0 mb 0.00 in0.0 mm 0.00 in/hr0.0 mm/hr 0.00 in0.0 mm
04:28 PM 39.4°F4.1°C -3.1°F-19.5°C 16% 6.0 mph S9.7 kmh S 8.3 mph13.4 kmh 25.10 in850.0 mb 0.00 in0.0 mm 0.00 in/hr0.0 mm/hr 0.00 in0.0 mm
04:23 PM 39.9°F4.4°C -2.6°F-19.2°C 16% 7.0 mph S11.3 kmh S 10.5 mph16.9 kmh 25.10 in850.0 mb 0.00 in0.0 mm 0.00 in/hr0.0 mm/hr 0.00 in0.0 mm
04:18 PM 40.3°F4.6°C -2.4°F-19.1°C 16% 8.0 mph S12.9 kmh S 11.0 mph17.7 kmh 25.10 in850.0 mb 0.00 in0.0 mm 0.00 in/hr0.0 mm/hr 0.00 in0.0 mm
04:13 PM 40.6°F4.8°C -2.0°F-18.9°C 16% 10.0 mph S16.1 kmh S 11.6 mph18.7 kmh 25.10 in850.0 mb 0.00 in0.0 mm 0.00 in/hr0.0 mm/hr 0.00 in0.0 mm
04:08 PM 39.6°F4.2°C -2.9°F-19.4°C 16% 10.0 mph S16.1 kmh S 15.9 mph25.6 kmh 25.10 in850.0 mb 0.00 in0.0 mm 0.00 in/hr0.0 mm/hr 0.00 in0.0 mm
04:03 PM 39.6°F4.2°C -2.9°F-19.4°C 16% 9.0 mph SE14.5 kmh SE 13.4 mph21.6 kmh 25.10 in850.0 mb 0.00 in0.0 mm 0.00 in/hr0.0 mm/hr 0.00 in0.0 mm
03:58 PM 40.5°F4.7°C -2.2°F-19.0°C 16% 9.0 mph SE14.5 kmh SE 13.4 mph21.6 kmh 25.10 in850.0 mb 0.00 in0.0 mm 0.00 in/hr0.0 mm/hr 0.00 in0.0 mm
03:53 PM 40.6°F4.8°C -6.3°F-21.3°C 13% 10.0 mph SE16.1 kmh SE 15.9 mph25.6 kmh 25.10 in850.0 mb 0.00 in0.0 mm 0.00 in/hr0.0 mm/hr 0.00 in0.0 mm
03:48 PM 40.8°F4.9°C -6.2°F-21.2°C 13% 11.0 mph SSE17.7 kmh SSE 18.6 mph29.9 kmh 25.10 in850.0 mb 0.00 in0.0 mm 0.00 in/hr0.0 mm/hr 0.00 in0.0 mm
03:43 PM 40.8°F4.9°C -1.8°F-18.8°C 16% 10.0 mph SSE16.1 kmh SSE 15.4 mph24.8 kmh 25.10 in850.0 mb 0.00 in0.0 mm 0.00 in/hr0.0 mm/hr 0.00 in0.0 mm
03:38 PM 40.8°F4.9°C -1.8°F-18.8°C 16% 10.0 mph SSE16.1 kmh SSE 16.8 mph27.0 kmh 25.10 in850.0 mb 0.00 in0.0 mm 0.00 in/hr0.0 mm/hr 0.00 in0.0 mm
03:33 PM 41.0°F5.0°C -1.7°F-18.7°C 16% 10.0 mph SE16.1 kmh SE 19.5 mph31.4 kmh 25.10 in850.0 mb 0.00 in0.0 mm 0.00 in/hr0.0 mm/hr 0.00 in0.0 mm
03:28 PM 40.8°F4.9°C -1.8°F-18.8°C 16% 9.0 mph SE14.5 kmh SE 15.9 mph25.6 kmh 25.10 in850.0 mb 0.00 in0.0 mm 0.00 in/hr0.0 mm/hr 0.00 in0.0 mm
03:23 PM 41.4°F5.2°C -1.5°F-18.6°C 16% 10.0 mph SSE16.1 kmh SSE 15.4 mph24.8 kmh 25.10 in850.0 mb 0.00 in0.0 mm 0.00 in/hr0.0 mm/hr 0.00 in0.0 mm
03:18 PM 40.8°F4.9°C 0.7°F-17.4°C 18% 8.0 mph SE12.9 kmh SE 13.0 mph20.9 kmh 25.10 in850.0 mb 0.00 in0.0 mm 0.00 in/hr0.0 mm/hr 0.00 in0.0 mm
03:13 PM 41.2°F5.1°C 4.3°F-15.4°C 21% 6.0 mph SSE9.7 kmh SSE 12.5 mph20.1 kmh 25.10 in850.0 mb 0.00 in0.0 mm 0.00 in/hr0.0 mm/hr 0.00 in0.0 mm
03:08 PM 40.3°F4.6°C 0.1°F-17.7°C 18% 7.0 mph S11.3 kmh S 10.5 mph16.9 kmh 25.10 in850.0 mb 0.00 in0.0 mm 0.00 in/hr0.0 mm/hr 0.00 in0.0 mm
03:03 PM 39.9°F4.4°C 3.2°F-16.0°C 21% 8.0 mph S12.9 kmh S 11.0 mph17.7 kmh 25.10 in850.0 mb 0.00 in0.0 mm 0.00 in/hr0.0 mm/hr 0.00 in0.0 mm
02:58 PM 39.9°F4.4°C 3.2°F-16.0°C 21% 9.0 mph S14.5 kmh S 16.3 mph26.2 kmh 25.10 in850.0 mb 0.00 in0.0 mm 0.00 in/hr0.0 mm/hr 0.00 in0.0 mm
02:53 PM 39.6°F4.2°C -0.4°F-18.0°C 18% 8.0 mph S12.9 kmh S 15.9 mph25.6 kmh 25.10 in850.0 mb 0.00 in0.0 mm 0.00 in/hr0.0 mm/hr 0.00 in0.0 mm
02:48 PM 39.9°F4.4°C 0.0°F-17.8°C 18% 8.0 mph S12.9 kmh S 11.6 mph18.7 kmh 25.10 in850.0 mb 0.00 in0.0 mm 0.00 in/hr0.0 mm/hr 0.00 in0.0 mm
02:43 PM 40.5°F4.7°C 0.3°F-17.6°C 18% 9.0 mph S14.5 kmh S 13.9 mph22.4 kmh 25.10 in850.0 mb 0.00 in0.0 mm 0.00 in/hr0.0 mm/hr 0.00 in0.0 mm
02:38 PM 39.9°F4.4°C 0.0°F-17.8°C 18% 9.0 mph S14.5 kmh S 14.3 mph23.0 kmh 25.10 in850.0 mb 0.00 in0.0 mm 0.00 in/hr0.0 mm/hr 0.00 in0.0 mm
02:33 PM 40.3°F4.6°C 0.1°F-17.7°C 18% 10.0 mph S16.1 kmh S 15.2 mph24.5 kmh 25.10 in850.0 mb 0.00 in0.0 mm 0.00 in/hr0.0 mm/hr 0.00 in0.0 mm
02:28 PM 39.9°F4.4°C 0.0°F-17.8°C 18% 9.0 mph S14.5 kmh S 16.3 mph26.2 kmh 25.10 in850.0 mb 0.00 in0.0 mm 0.00 in/hr0.0 mm/hr 0.00 in0.0 mm
02:23 PM 39.4°F4.1°C -3.1°F-19.5°C 16% 9.0 mph S14.5 kmh S 13.0 mph20.9 kmh 25.10 in850.0 mb 0.00 in0.0 mm 0.00 in/hr0.0 mm/hr 0.00 in0.0 mm
02:18 PM 40.8°F4.9°C 0.7°F-17.4°C 18% 11.0 mph SSE17.7 kmh SSE 17.2 mph27.7 kmh 25.10 in850.0 mb 0.00 in0.0 mm 0.00 in/hr0.0 mm/hr 0.00 in0.0 mm
02:13 PM 41.0°F5.0°C 0.9°F-17.3°C 18% 10.0 mph S16.1 kmh S 16.3 mph26.2 kmh 25.10 in850.0 mb 0.00 in0.0 mm 0.00 in/hr0.0 mm/hr 0.00 in0.0 mm
02:08 PM 39.4°F4.1°C -3.1°F-19.5°C 16% 9.0 mph S14.5 kmh S 15.2 mph24.5 kmh 25.10 in850.0 mb 0.00 in0.0 mm 0.00 in/hr0.0 mm/hr 0.00 in0.0 mm
02:03 PM 39.2°F4.0°C -3.1°F-19.5°C 16% 9.0 mph S14.5 kmh S 15.9 mph25.6 kmh 25.10 in850.0 mb 0.00 in0.0 mm 0.00 in/hr0.0 mm/hr 0.00 in0.0 mm
01:58 PM 40.1°F4.5°C 0.0°F-17.8°C 18% 9.0 mph SSE14.5 kmh SSE 15.4 mph24.8 kmh 25.10 in850.0 mb 0.00 in0.0 mm 0.00 in/hr0.0 mm/hr 0.00 in0.0 mm
01:52 PM 39.7°F4.3°C -2.7°F-19.3°C 16% 9.0 mph S14.5 kmh S 16.3 mph26.2 kmh 25.10 in850.0 mb 0.00 in0.0 mm 0.00 in/hr0.0 mm/hr 0.00 in0.0 mm
01:47 PM 39.6°F4.2°C -2.9°F-19.4°C 16% 10.0 mph S16.1 kmh S 13.9 mph22.4 kmh 25.10 in850.0 mb 0.00 in0.0 mm 0.00 in/hr0.0 mm/hr 0.00 in0.0 mm
01:42 PM 39.9°F4.4°C 0.0°F-17.8°C 18% 12.0 mph S19.3 kmh S 16.8 mph27.0 kmh 25.10 in850.0 mb 0.00 in0.0 mm 0.00 in/hr0.0 mm/hr 0.00 in0.0 mm
01:37 PM 40.1°F4.5°C 0.0°F-17.8°C 18% 13.0 mph S20.9 kmh S 16.8 mph27.0 kmh 25.10 in850.0 mb 0.00 in0.0 mm 0.00 in/hr0.0 mm/hr 0.00 in0.0 mm
01:32 PM 38.8°F3.8°C -3.5°F-19.7°C 16% 11.0 mph S17.7 kmh S 22.8 mph36.7 kmh 25.10 in850.0 mb 0.00 in0.0 mm 0.00 in/hr0.0 mm/hr 0.00 in0.0 mm
01:27 PM 38.8°F3.8°C -7.8°F-22.1°C 13% 10.0 mph SSE16.1 kmh SSE 13.9 mph22.4 kmh 25.10 in850.0 mb 0.00 in0.0 mm 0.00 in/hr0.0 mm/hr 0.00 in0.0 mm
01:22 PM 39.0°F3.9°C -0.8°F-18.2°C 18% 11.0 mph S17.7 kmh S 17.2 mph27.7 kmh 25.10 in850.0 mb 0.00 in0.0 mm 0.00 in/hr0.0 mm/hr 0.00 in0.0 mm
01:17 PM 39.0°F3.9°C -0.8°F-18.2°C 18% 10.0 mph S16.1 kmh S 16.8 mph27.0 kmh 25.10 in850.0 mb 0.00 in0.0 mm 0.00 in/hr0.0 mm/hr 0.00 in0.0 mm
01:12 PM 38.8°F3.8°C -3.5°F-19.7°C 16% 9.0 mph S14.5 kmh S 13.4 mph21.6 kmh 25.10 in850.0 mb 0.00 in0.0 mm 0.00 in/hr0.0 mm/hr 0.00 in0.0 mm
01:07 PM 38.8°F3.8°C -0.9°F-18.3°C 18% 10.0 mph S16.1 kmh S 15.2 mph24.5 kmh 25.10 in850.0 mb 0.00 in0.0 mm 0.00 in/hr0.0 mm/hr 0.00 in0.0 mm
01:02 PM 38.5°F3.6°C -3.8°F-19.9°C 16% 10.0 mph S16.1 kmh S 15.4 mph24.8 kmh 25.10 in850.0 mb 0.00 in0.0 mm 0.00 in/hr0.0 mm/hr 0.00 in0.0 mm
12:57 PM 38.3°F3.5°C -0.2°F-17.9°C 19% 10.0 mph S16.1 kmh S 13.9 mph22.4 kmh 25.10 in850.0 mb 0.00 in0.0 mm 0.00 in/hr0.0 mm/hr 0.00 in0.0 mm
12:52 PM 38.5°F3.6°C -1.3°F-18.5°C 18% 10.0 mph S16.1 kmh S 13.9 mph22.4 kmh 25.10 in850.0 mb 0.00 in0.0 mm 0.00 in/hr0.0 mm/hr 0.00 in0.0 mm
12:47 PM 37.8°F3.2°C -4.4°F-20.2°C 16% 10.0 mph S16.1 kmh S 14.3 mph23.0 kmh 25.10 in850.0 mb 0.00 in0.0 mm 0.00 in/hr0.0 mm/hr 0.00 in0.0 mm
12:42 PM 37.6°F3.1°C -4.5°F-20.3°C 16% 9.0 mph S14.5 kmh S 17.7 mph28.5 kmh 25.10 in850.0 mb 0.00 in0.0 mm 0.00 in/hr0.0 mm/hr 0.00 in0.0 mm
12:37 PM 37.8°F3.2°C -0.8°F-18.2°C 19% 8.0 mph S12.9 kmh S 11.2 mph18.0 kmh 25.10 in850.0 mb 0.00 in0.0 mm 0.00 in/hr0.0 mm/hr 0.00 in0.0 mm
12:32 PM 37.0°F2.8°C -4.9°F-20.5°C 16% 8.0 mph S12.9 kmh S 11.6 mph18.7 kmh 25.10 in850.0 mb 0.00 in0.0 mm 0.00 in/hr0.0 mm/hr 0.00 in0.0 mm
12:27 PM 36.7°F2.6°C -5.3°F-20.7°C 16% 8.0 mph SSW12.9 kmh SSW 12.5 mph20.1 kmh 25.10 in850.0 mb 0.00 in0.0 mm 0.00 in/hr0.0 mm/hr 0.00 in0.0 mm
12:22 PM 36.7°F2.6°C -1.7°F-18.7°C 19% 7.0 mph SW11.3 kmh SW 12.1 mph19.5 kmh 25.10 in850.0 mb 0.00 in0.0 mm 0.00 in/hr0.0 mm/hr 0.00 in0.0 mm
12:17 PM 36.9°F2.7°C -1.5°F-18.6°C 19% 6.0 mph SW9.7 kmh SW 11.6 mph18.7 kmh 25.10 in850.0 mb 0.00 in0.0 mm 0.00 in/hr0.0 mm/hr 0.00 in0.0 mm
12:12 PM 35.8°F2.1°C -4.7°F-20.4°C 17% 7.0 mph SSW11.3 kmh SSW 8.7 mph14.0 kmh 25.10 in850.0 mb 0.00 in0.0 mm 0.00 in/hr0.0 mm/hr 0.00 in0.0 mm
12:07 PM 36.5°F2.5°C -1.8°F-18.8°C 19% 9.0 mph S14.5 kmh S 12.5 mph20.1 kmh 25.10 in850.0 mb 0.00 in0.0 mm 0.00 in/hr0.0 mm/hr 0.00 in0.0 mm
12:02 PM 36.9°F2.7°C -1.5°F-18.6°C 19% 7.0 mph SSW11.3 kmh SSW 15.2 mph24.5 kmh 25.10 in850.0 mb 0.00 in0.0 mm 0.00 in/hr0.0 mm/hr 0.00 in0.0 mm
11:57 AM 36.5°F2.5°C 0.3°F-17.6°C 21% 6.0 mph SW9.7 kmh SW 7.8 mph12.6 kmh 25.10 in850.0 mb 0.00 in0.0 mm 0.00 in/hr0.0 mm/hr 0.00 in0.0 mm
11:52 AM 35.8°F2.1°C -2.4°F-19.1°C 19% 6.0 mph SSW9.7 kmh SSW 10.5 mph16.9 kmh 25.10 in850.0 mb 0.00 in0.0 mm 0.00 in/hr0.0 mm/hr 0.00 in0.0 mm
11:47 AM 36.3°F2.4°C 1.2°F-17.1°C 22% 6.0 mph SW9.7 kmh SW 10.1 mph16.3 kmh 25.10 in850.0 mb 0.00 in0.0 mm 0.00 in/hr0.0 mm/hr 0.00 in0.0 mm
11:42 AM 36.5°F2.5°C 7.3°F-13.7°C 29% 6.0 mph SW9.7 kmh SW 10.5 mph16.9 kmh 25.10 in850.0 mb 0.00 in0.0 mm 0.00 in/hr0.0 mm/hr 0.00 in0.0 mm
11:37 AM 36.3°F2.4°C 7.2°F-13.8°C 29% 5.0 mph SW8.0 kmh SW 10.1 mph16.3 kmh 25.10 in850.0 mb 0.00 in0.0 mm 0.00 in/hr0.0 mm/hr 0.00 in0.0 mm
11:32 AM 35.6°F2.0°C -2.6°F-19.2°C 19% 3.0 mph SW4.8 kmh SW 9.6 mph15.4 kmh 25.10 in850.0 mb 0.00 in0.0 mm 0.00 in/hr0.0 mm/hr 0.00 in0.0 mm
11:27 AM 36.5°F2.5°C 3.2°F-16.0°C 24% 3.0 mph SW4.8 kmh SW 5.4 mph8.7 kmh 25.10 in850.0 mb 0.00 in0.0 mm 0.00 in/hr0.0 mm/hr 0.00 in0.0 mm
11:22 AM 35.4°F1.9°C 0.3°F-17.6°C 22% 4.0 mph S6.4 kmh S 7.8 mph12.6 kmh 25.10 in850.0 mb 0.00 in0.0 mm 0.00 in/hr0.0 mm/hr 0.00 in0.0 mm
11:17 AM 35.4°F1.9°C 0.3°F-17.6°C 22% 5.0 mph S8.0 kmh S 7.4 mph11.9 kmh 25.10 in850.0 mb 0.00 in0.0 mm 0.00 in/hr0.0 mm/hr 0.00 in0.0 mm
11:12 AM 35.1°F1.7°C 4.5°F-15.3°C 27% 5.0 mph S8.0 kmh S 11.0 mph17.7 kmh 25.10 in850.0 mb 0.00 in0.0 mm 0.00 in/hr0.0 mm/hr 0.00 in0.0 mm
11:07 AM 35.4°F1.9°C 7.2°F-13.8°C 30% 5.0 mph S8.0 kmh S 8.7 mph14.0 kmh 25.10 in850.0 mb 0.00 in0.0 mm 0.00 in/hr0.0 mm/hr 0.00 in0.0 mm
11:02 AM 34.5°F1.4°C 2.3°F-16.5°C 25% 4.0 mph SW6.4 kmh SW 7.4 mph11.9 kmh 25.10 in850.0 mb 0.00 in0.0 mm 0.00 in/hr0.0 mm/hr 0.00 in0.0 mm
10:52 AM 34.3°F1.3°C 3.9°F-15.6°C 27% 5.0 mph WSW8.0 kmh WSW 7.8 mph12.6 kmh 25.10 in850.0 mb 0.00 in0.0 mm 0.00 in/hr0.0 mm/hr 0.00 in0.0 mm
10:47 AM 34.3°F1.3°C 3.9°F-15.6°C 27% 5.0 mph SW8.0 kmh SW 8.3 mph13.4 kmh 25.10 in850.0 mb 0.00 in0.0 mm 0.00 in/hr0.0 mm/hr 0.00 in0.0 mm
10:42 AM 34.5°F1.4°C 4.1°F-15.5°C 27% 4.0 mph SSW6.4 kmh SSW 8.7 mph14.0 kmh 25.10 in850.0 mb 0.00 in0.0 mm 0.00 in/hr0.0 mm/hr 0.00 in0.0 mm
10:37 AM 34.7°F1.5°C 7.2°F-13.8°C 31% 4.0 mph SSW6.4 kmh SSW 7.8 mph12.6 kmh 25.10 in850.0 mb 0.00 in0.0 mm 0.00 in/hr0.0 mm/hr 0.00 in0.0 mm
10:32 AM 34.0°F1.1°C 5.9°F-14.5°C 30% 5.0 mph S8.0 kmh S 10.1 mph16.3 kmh 25.10 in850.0 mb 0.00 in0.0 mm 0.00 in/hr0.0 mm/hr 0.00 in0.0 mm
10:27 AM 33.8°F1.0°C 6.4°F-14.2°C 31% 6.0 mph S9.7 kmh S 9.2 mph14.8 kmh 25.10 in850.0 mb 0.00 in0.0 mm 0.00 in/hr0.0 mm/hr 0.00 in0.0 mm
10:22 AM 33.4°F0.8°C 6.1°F-14.4°C 31% 5.0 mph S8.0 kmh S 10.1 mph16.3 kmh 25.10 in850.0 mb 0.00 in0.0 mm 0.00 in/hr0.0 mm/hr 0.00 in0.0 mm
10:12 AM 33.3°F0.7°C 5.2°F-14.9°C 30% 6.0 mph S9.7 kmh S 8.7 mph14.0 kmh 25.10 in850.0 mb 0.00 in0.0 mm 0.00 in/hr0.0 mm/hr 0.00 in0.0 mm
10:02 AM 33.1°F0.6°C 5.0°F-15.0°C 30% 5.0 mph SSW8.0 kmh SSW 7.8 mph12.6 kmh 25.10 in850.0 mb 0.00 in0.0 mm 0.00 in/hr0.0 mm/hr 0.00 in0.0 mm
09:57 AM 33.1°F0.6°C 5.7°F-14.6°C 31% 5.0 mph S8.0 kmh S 9.2 mph14.8 kmh 25.10 in850.0 mb 0.00 in0.0 mm 0.00 in/hr0.0 mm/hr 0.00 in0.0 mm
09:52 AM 33.3°F0.7°C 7.3°F-13.7°C 33% 6.0 mph S9.7 kmh S 8.3 mph13.4 kmh 25.10 in850.0 mb 0.00 in0.0 mm 0.00 in/hr0.0 mm/hr 0.00 in0.0 mm
09:47 AM 32.7°F0.4°C 6.1°F-14.4°C 32% 6.0 mph SSW9.7 kmh SSW 9.2 mph14.8 kmh 25.10 in850.0 mb 0.00 in0.0 mm 0.00 in/hr0.0 mm/hr 0.00 in0.0 mm
09:42 AM 32.7°F0.4°C 6.1°F-14.4°C 32% 4.0 mph SSW6.4 kmh SSW 7.8 mph12.6 kmh 25.10 in850.0 mb 0.00 in0.0 mm 0.00 in/hr0.0 mm/hr 0.00 in0.0 mm
09:37 AM 32.7°F0.4°C 5.5°F-14.7°C 31% 3.0 mph SSW4.8 kmh SSW 6.3 mph10.1 kmh 25.10 in850.0 mb 0.00 in0.0 mm 0.00 in/hr0.0 mm/hr 0.00 in0.0 mm
09:32 AM 32.5°F0.3°C 6.1°F-14.4°C 32% 4.0 mph SSW6.4 kmh SSW 6.7 mph10.8 kmh 25.10 in850.0 mb 0.00 in0.0 mm 0.00 in/hr0.0 mm/hr 0.00 in0.0 mm
09:27 AM 32.2°F0.1°C 5.0°F-15.0°C 31% 4.0 mph S6.4 kmh S 6.9 mph11.1 kmh 25.10 in850.0 mb 0.00 in0.0 mm 0.00 in/hr0.0 mm/hr 0.00 in0.0 mm
09:22 AM 32.2°F0.1°C 6.3°F-14.3°C 33% 5.0 mph S8.0 kmh S 6.9 mph11.1 kmh 25.10 in850.0 mb 0.00 in0.0 mm 0.00 in/hr0.0 mm/hr 0.00 in0.0 mm
09:17 AM 32.4°F0.2°C 6.4°F-14.2°C 33% 4.0 mph S6.4 kmh S 6.9 mph11.1 kmh 25.10 in850.0 mb 0.00 in0.0 mm 0.00 in/hr0.0 mm/hr 0.00 in0.0 mm
09:12 AM 32.5°F0.3°C 7.3°F-13.7°C 34% 3.0 mph SSE4.8 kmh SSE 5.4 mph8.7 kmh 25.10 in850.0 mb 0.00 in0.0 mm 0.00 in/hr0.0 mm/hr 0.00 in0.0 mm
09:07 AM 31.8°F-0.1°C 5.4°F-14.8°C 32% 3.0 mph S4.8 kmh S 6.3 mph10.1 kmh 25.10 in850.0 mb 0.00 in0.0 mm 0.00 in/hr0.0 mm/hr 0.00 in0.0 mm
09:02 AM 32.5°F0.3°C 6.6°F-14.1°C 33% 1.0 mph SSE1.6 kmh SSE 5.4 mph8.7 kmh 25.10 in850.0 mb 0.00 in0.0 mm 0.00 in/hr0.0 mm/hr 0.00 in0.0 mm
08:57 AM 32.5°F0.3°C 6.1°F-14.4°C 32% 1.0 mph SSE1.6 kmh SSE 3.1 mph5.0 kmh 25.10 in850.0 mb 0.00 in0.0 mm 0.00 in/hr0.0 mm/hr 0.00 in0.0 mm
08:52 AM 32.2°F0.1°C 7.0°F-13.9°C 34% 2.0 mph SE3.2 kmh SE 5.8 mph9.3 kmh 25.10 in850.0 mb 0.00 in0.0 mm 0.00 in/hr0.0 mm/hr 0.00 in0.0 mm
08:47 AM 32.0°F0.0°C 6.8°F-14.0°C 34% 3.0 mph SE4.8 kmh SE 5.4 mph8.7 kmh 25.10 in850.0 mb 0.00 in0.0 mm 0.00 in/hr0.0 mm/hr 0.00 in0.0 mm
08:42 AM 31.8°F-0.1°C 6.6°F-14.1°C 34% 3.0 mph SE4.8 kmh SE 4.9 mph7.9 kmh 25.07 in849.0 mb 0.00 in0.0 mm 0.00 in/hr0.0 mm/hr 0.00 in0.0 mm
08:37 AM 31.6°F-0.2°C 7.2°F-13.8°C 35% 2.0 mph SE3.2 kmh SE 4.9 mph7.9 kmh 25.07 in849.0 mb 0.00 in0.0 mm 0.00 in/hr0.0 mm/hr 0.00 in0.0 mm
08:32 AM 32.2°F0.1°C 10.6°F-11.9°C 40% Calm Calm 4.5 mph7.2 kmh 25.07 in849.0 mb 0.00 in0.0 mm 0.00 in/hr0.0 mm/hr 0.00 in0.0 mm
08:27 AM 32.2°F0.1°C 11.1°F-11.6°C 41% Calm Calm 3.1 mph5.0 kmh 25.07 in849.0 mb 0.00 in0.0 mm 0.00 in/hr0.0 mm/hr 0.00 in0.0 mm
08:22 AM 33.3°F0.7°C 13.8°F-10.1°C 44% Calm Calm -- 25.07 in849.0 mb 0.00 in0.0 mm 0.00 in/hr0.0 mm/hr 0.00 in0.0 mm
08:17 AM 33.4°F0.8°C 15.4°F-9.2°C 47% Calm Calm -- 25.07 in849.0 mb 0.00 in0.0 mm 0.00 in/hr0.0 mm/hr 0.00 in0.0 mm
08:12 AM 32.7°F0.4°C 15.3°F-9.3°C 48% Calm Calm -- 25.07 in849.0 mb 0.00 in0.0 mm 0.00 in/hr0.0 mm/hr 0.00 in0.0 mm
08:07 AM 32.7°F0.4°C 16.7°F-8.5°C 51% Calm Calm -- 25.07 in849.0 mb 0.00 in0.0 mm 0.00 in/hr0.0 mm/hr 0.00 in0.0 mm
08:02 AM 31.3°F-0.4°C 15.3°F-9.3°C 51% Calm Calm -- 25.07 in849.0 mb 0.00 in0.0 mm 0.00 in/hr0.0 mm/hr 0.00 in0.0 mm
07:57 AM 30.6°F-0.8°C 15.4°F-9.2°C 53% Calm Calm -- 25.07 in849.0 mb 0.00 in0.0 mm 0.00 in/hr0.0 mm/hr 0.00 in0.0 mm
07:52 AM 30.4°F-0.9°C 17.1°F-8.3°C 57% Calm Calm 3.6 mph5.8 kmh 25.07 in849.0 mb 0.00 in0.0 mm 0.00 in/hr0.0 mm/hr 0.00 in0.0 mm
07:47 AM 30.6°F-0.8°C 18.3°F-7.6°C 60% Calm Calm -- 25.07 in849.0 mb 0.00 in0.0 mm 0.00 in/hr0.0 mm/hr 0.00 in0.0 mm
07:42 AM 29.8°F-1.2°C 18.9°F-7.3°C 63% Calm Calm 2.7 mph4.3 kmh 25.04 in848.0 mb 0.00 in0.0 mm 0.00 in/hr0.0 mm/hr 0.00 in0.0 mm
07:37 AM 29.1°F-1.6°C 19.9°F-6.7°C 68% 1.0 mph ENE1.6 kmh ENE 3.1 mph5.0 kmh 25.04 in848.0 mb 0.00 in0.0 mm 0.00 in/hr0.0 mm/hr 0.00 in0.0 mm
07:32 AM 28.0°F-2.2°C 20.1°F-6.6°C 72% 1.0 mph ENE1.6 kmh ENE 3.6 mph5.8 kmh 25.04 in848.0 mb 0.00 in0.0 mm 0.00 in/hr0.0 mm/hr 0.00 in0.0 mm
07:27 AM 27.5°F-2.5°C 19.8°F-6.8°C 72% 2.0 mph ENE3.2 kmh ENE 4.0 mph6.4 kmh 25.04 in848.0 mb 0.00 in0.0 mm 0.00 in/hr0.0 mm/hr 0.00 in0.0 mm
07:22 AM 26.2°F-3.2°C 19.0°F-7.2°C 74% 3.0 mph ENE4.8 kmh ENE 5.4 mph8.7 kmh 25.04 in848.0 mb 0.00 in0.0 mm 0.00 in/hr0.0 mm/hr 0.00 in0.0 mm
07:17 AM 25.3°F-3.7°C 18.0°F-7.8°C 73% 3.0 mph ENE4.8 kmh ENE 5.4 mph8.7 kmh 25.04 in848.0 mb 0.00 in0.0 mm 0.00 in/hr0.0 mm/hr 0.00 in0.0 mm
07:12 AM 25.3°F-3.7°C 18.3°F-7.6°C 74% 2.0 mph ENE3.2 kmh ENE 4.5 mph7.2 kmh 25.04 in848.0 mb 0.00 in0.0 mm 0.00 in/hr0.0 mm/hr 0.00 in0.0 mm
07:07 AM 25.5°F-3.6°C 18.7°F-7.4°C 75% 2.0 mph ENE3.2 kmh ENE 4.5 mph7.2 kmh 25.04 in848.0 mb 0.00 in0.0 mm 0.00 in/hr0.0 mm/hr 0.00 in0.0 mm
07:02 AM 25.5°F-3.6°C 19.4°F-7.0°C 77% 1.0 mph ENE1.6 kmh ENE 4.9 mph7.9 kmh 25.04 in848.0 mb 0.00 in0.0 mm 0.00 in/hr0.0 mm/hr 0.00 in0.0 mm
06:57 AM 25.5°F-3.6°C 19.6°F-6.9°C 78% 2.0 mph ENE3.2 kmh ENE 4.0 mph6.4 kmh 25.04 in848.0 mb 0.00 in0.0 mm 0.00 in/hr0.0 mm/hr 0.00 in0.0 mm
06:52 AM 25.7°F-3.5°C 19.8°F-6.8°C 78% 3.0 mph ENE4.8 kmh ENE 4.5 mph7.2 kmh 25.04 in848.0 mb 0.00 in0.0 mm 0.00 in/hr0.0 mm/hr 0.00 in0.0 mm
06:47 AM 26.1°F-3.3°C 20.1°F-6.6°C 78% 4.0 mph ENE6.4 kmh ENE 6.3 mph10.1 kmh 25.04 in848.0 mb 0.00 in0.0 mm 0.00 in/hr0.0 mm/hr 0.00 in0.0 mm
06:42 AM 26.2°F-3.2°C 20.3°F-6.5°C 78% 4.0 mph ENE6.4 kmh ENE 7.4 mph11.9 kmh 25.04 in848.0 mb 0.00 in0.0 mm 0.00 in/hr0.0 mm/hr 0.00 in0.0 mm
06:36 AM 26.2°F-3.2°C 20.7°F-6.3°C 79% 5.0 mph ENE8.0 kmh ENE 6.7 mph10.8 kmh 25.04 in848.0 mb 0.00 in0.0 mm 0.00 in/hr0.0 mm/hr 0.00 in0.0 mm
06:31 AM 26.1°F-3.3°C 20.8°F-6.2°C 80% 6.0 mph ENE9.7 kmh ENE 8.7 mph14.0 kmh 25.04 in848.0 mb 0.00 in0.0 mm 0.00 in/hr0.0 mm/hr 0.00 in0.0 mm
06:26 AM 25.9°F-3.4°C 20.8°F-6.2°C 81% 6.0 mph ENE9.7 kmh ENE 9.6 mph15.4 kmh 25.04 in848.0 mb 0.00 in0.0 mm 0.00 in/hr0.0 mm/hr 0.00 in0.0 mm
06:21 AM 25.9°F-3.4°C 20.8°F-6.2°C 81% 6.0 mph ENE9.7 kmh ENE 9.6 mph15.4 kmh 25.04 in848.0 mb 0.00 in0.0 mm 0.00 in/hr0.0 mm/hr 0.00 in0.0 mm
06:16 AM 26.1°F-3.3°C 21.4°F-5.9°C 82% 6.0 mph ENE9.7 kmh ENE 9.2 mph14.8 kmh 25.04 in848.0 mb 0.00 in0.0 mm 0.00 in/hr0.0 mm/hr 0.00 in0.0 mm
06:11 AM 26.1°F-3.3°C 21.6°F-5.8°C 83% 5.0 mph ENE8.0 kmh ENE 8.3 mph13.4 kmh 25.04 in848.0 mb 0.00 in0.0 mm 0.00 in/hr0.0 mm/hr 0.00 in0.0 mm
06:06 AM 26.2°F-3.2°C 22.1°F-5.5°C 84% 4.0 mph ENE6.4 kmh ENE 6.9 mph11.1 kmh 25.04 in848.0 mb 0.00 in0.0 mm 0.00 in/hr0.0 mm/hr 0.00 in0.0 mm
06:01 AM 26.2°F-3.2°C 22.1°F-5.5°C 84% 5.0 mph ENE8.0 kmh ENE 7.8 mph12.6 kmh 25.04 in848.0 mb 0.00 in0.0 mm 0.00 in/hr0.0 mm/hr 0.00 in0.0 mm
05:56 AM 26.1°F-3.3°C 21.6°F-5.8°C 83% 5.0 mph ENE8.0 kmh ENE 6.9 mph11.1 kmh 25.04 in848.0 mb 0.00 in0.0 mm 0.00 in/hr0.0 mm/hr 0.00 in0.0 mm
05:51 AM 26.1°F-3.3°C 21.4°F-5.9°C 82% 5.0 mph E8.0 kmh E 6.9 mph11.1 kmh 25.04 in848.0 mb 0.00 in0.0 mm 0.00 in/hr0.0 mm/hr 0.00 in0.0 mm
05:46 AM 26.2°F-3.2°C 21.2°F-6.0°C 81% 4.0 mph E6.4 kmh E 6.9 mph11.1 kmh 25.04 in848.0 mb 0.00 in0.0 mm 0.00 in/hr0.0 mm/hr 0.00 in0.0 mm
05:41 AM 26.2°F-3.2°C 21.2°F-6.0°C 81% 3.0 mph SE4.8 kmh SE 5.4 mph8.7 kmh 25.01 in846.9 mb 0.00 in0.0 mm 0.00 in/hr0.0 mm/hr 0.00 in0.0 mm
05:36 AM 26.2°F-3.2°C 20.8°F-6.2°C 80% 3.0 mph S4.8 kmh S 4.9 mph7.9 kmh 25.01 in846.9 mb 0.00 in0.0 mm 0.00 in/hr0.0 mm/hr 0.00 in0.0 mm
05:31 AM 26.2°F-3.2°C 20.7°F-6.3°C 79% 4.0 mph SW6.4 kmh SW 4.9 mph7.9 kmh 25.01 in846.9 mb 0.00 in0.0 mm 0.00 in/hr0.0 mm/hr 0.00 in0.0 mm
05:26 AM 26.6°F-3.0°C 20.1°F-6.6°C 76% 5.0 mph WNW8.0 kmh WNW 9.2 mph14.8 kmh 25.01 in846.9 mb 0.00 in0.0 mm 0.00 in/hr0.0 mm/hr 0.00 in0.0 mm
05:21 AM 27.1°F-2.7°C 22.6°F-5.2°C 83% 4.0 mph N6.4 kmh N 6.9 mph11.1 kmh 25.01 in846.9 mb 0.00 in0.0 mm 0.00 in/hr0.0 mm/hr 0.00 in0.0 mm
05:16 AM 27.3°F-2.6°C 24.4°F-4.2°C 89% 4.0 mph N6.4 kmh N 5.8 mph9.3 kmh 25.01 in846.9 mb 0.00 in0.0 mm 0.00 in/hr0.0 mm/hr 0.00 in0.0 mm
05:11 AM 27.5°F-2.5°C 25.0°F-3.9°C 90% 5.0 mph N8.0 kmh N 6.7 mph10.8 kmh 25.01 in846.9 mb 0.00 in0.0 mm 0.00 in/hr0.0 mm/hr 0.00 in0.0 mm
05:06 AM 27.7°F-2.4°C 25.2°F-3.8°C 90% 6.0 mph N9.7 kmh N 8.7 mph14.0 kmh 25.01 in846.9 mb 0.00 in0.0 mm 0.00 in/hr0.0 mm/hr 0.00 in0.0 mm
05:01 AM 27.5°F-2.5°C 25.0°F-3.9°C 90% 6.0 mph N9.7 kmh N 10.1 mph16.3 kmh 25.01 in846.9 mb 0.00 in0.0 mm 0.00 in/hr0.0 mm/hr 0.00 in0.0 mm
04:56 AM 28.0°F-2.2°C 25.7°F-3.5°C 91% 4.0 mph 6.4 kmh 11.0 mph17.7 kmh 25.01 in846.9 mb 0.00 in0.0 mm 0.00 in/hr0.0 mm/hr 0.00 in0.0 mm
04:51 AM 28.0°F-2.2°C 25.7°F-3.5°C 91% 3.0 mph 4.8 kmh 5.8 mph9.3 kmh 25.01 in846.9 mb 0.00 in0.0 mm 0.00 in/hr0.0 mm/hr 0.00 in0.0 mm
04:46 AM 28.6°F-1.9°C 26.8°F-2.9°C 93% 3.0 mph 4.8 kmh 5.4 mph8.7 kmh 25.01 in846.9 mb 0.00 in0.0 mm 0.00 in/hr0.0 mm/hr 0.00 in0.0 mm
04:41 AM 28.6°F-1.9°C 27.1°F-2.7°C 94% 3.0 mph 4.8 kmh 6.3 mph10.1 kmh 24.98 in845.9 mb 0.00 in0.0 mm 0.00 in/hr0.0 mm/hr 0.00 in0.0 mm
04:36 AM 28.2°F-2.1°C 26.8°F-2.9°C 94% 3.0 mph 4.8 kmh 5.4 mph8.7 kmh 24.98 in845.9 mb 0.00 in0.0 mm 0.00 in/hr0.0 mm/hr 0.00 in0.0 mm
04:31 AM 28.2°F-2.1°C 26.8°F-2.9°C 94% 1.0 mph 1.6 kmh 4.0 mph6.4 kmh 24.98 in845.9 mb 0.00 in0.0 mm 0.00 in/hr0.0 mm/hr 0.00 in0.0 mm
04:26 AM 28.0°F-2.2°C 26.6°F-3.0°C 94% Calm Calm -- 24.98 in845.9 mb 0.00 in0.0 mm 0.00 in/hr0.0 mm/hr 0.00 in0.0 mm
04:21 AM 28.4°F-2.0°C 27.0°F-2.8°C 94% Calm Calm -- 24.98 in845.9 mb 0.00 in0.0 mm 0.00 in/hr0.0 mm/hr 0.00 in0.0 mm
04:16 AM 28.2°F-2.1°C 26.4°F-3.1°C 93% Calm Calm -- 24.98 in845.9 mb 0.00 in0.0 mm 0.00 in/hr0.0 mm/hr 0.00 in0.0 mm
04:11 AM 28.2°F-2.1°C 26.4°F-3.1°C 93% Calm Calm -- 24.98 in845.9 mb 0.00 in0.0 mm 0.00 in/hr0.0 mm/hr 0.00 in0.0 mm
04:06 AM 28.4°F-2.0°C 26.6°F-3.0°C 93% 1.0 mph 1.6 kmh 3.1 mph5.0 kmh 24.98 in845.9 mb 0.00 in0.0 mm 0.00 in/hr0.0 mm/hr 0.00 in0.0 mm
04:01 AM 28.4°F-2.0°C 26.6°F-3.0°C 93% 2.0 mph 3.2 kmh 4.0 mph6.4 kmh 24.98 in845.9 mb 0.00 in0.0 mm 0.00 in/hr0.0 mm/hr 0.00 in0.0 mm
03:56 AM 28.6°F-1.9°C 26.8°F-2.9°C 93% 3.0 mph 4.8 kmh 4.9 mph7.9 kmh 24.98 in845.9 mb 0.00 in0.0 mm 0.00 in/hr0.0 mm/hr 0.00 in0.0 mm
03:51 AM 28.6°F-1.9°C 26.8°F-2.9°C 93% 3.0 mph 4.8 kmh 4.9 mph7.9 kmh 24.98 in845.9 mb 0.00 in0.0 mm 0.00 in/hr0.0 mm/hr 0.00 in0.0 mm
03:46 AM 28.6°F-1.9°C 26.8°F-2.9°C 93% 3.0 mph 4.8 kmh 5.4 mph8.7 kmh 24.98 in845.9 mb 0.00 in0.0 mm 0.00 in/hr0.0 mm/hr 0.00 in0.0 mm
03:41 AM 28.6°F-1.9°C 26.6°F-3.0°C 92% 3.0 mph 4.8 kmh 5.8 mph9.3 kmh 24.98 in845.9 mb 0.00 in0.0 mm 0.00 in/hr0.0 mm/hr 0.00 in0.0 mm
03:36 AM 28.8°F-1.8°C 26.8°F-2.9°C 92% 4.0 mph 6.4 kmh 5.8 mph9.3 kmh 24.98 in845.9 mb 0.00 in0.0 mm 0.00 in/hr0.0 mm/hr 0.00 in0.0 mm
03:31 AM 28.8°F-1.8°C 26.4°F-3.1°C 91% 3.0 mph 4.8 kmh 5.8 mph9.3 kmh 24.98 in845.9 mb 0.00 in0.0 mm 0.00 in/hr0.0 mm/hr 0.00 in0.0 mm
03:26 AM 28.9°F-1.7°C 26.6°F-3.0°C 91% 1.0 mph 1.6 kmh 4.5 mph7.2 kmh 24.98 in845.9 mb 0.00 in0.0 mm 0.00 in/hr0.0 mm/hr 0.00 in0.0 mm
03:21 AM 28.9°F-1.7°C 26.6°F-3.0°C 91% Calm Calm 3.6 mph5.8 kmh 24.98 in845.9 mb 0.00 in0.0 mm 0.00 in/hr0.0 mm/hr 0.00 in0.0 mm
03:16 AM 28.9°F-1.7°C 26.4°F-3.1°C 90% 1.0 mph N1.6 kmh N 3.1 mph5.0 kmh 24.98 in845.9 mb 0.00 in0.0 mm 0.00 in/hr0.0 mm/hr 0.00 in0.0 mm
03:11 AM 28.9°F-1.7°C 26.4°F-3.1°C 90% 2.0 mph NW3.2 kmh NW 6.3 mph10.1 kmh 24.95 in844.9 mb 0.00 in0.0 mm 0.00 in/hr0.0 mm/hr 0.00 in0.0 mm
03:06 AM 29.1°F-1.6°C 26.6°F-3.0°C 90% 1.0 mph NW1.6 kmh NW 4.0 mph6.4 kmh 24.95 in844.9 mb 0.00 in0.0 mm 0.00 in/hr0.0 mm/hr 0.00 in0.0 mm
03:01 AM 28.9°F-1.7°C 26.4°F-3.1°C 90% Calm Calm 4.5 mph7.2 kmh 24.95 in844.9 mb 0.00 in0.0 mm 0.00 in/hr0.0 mm/hr 0.00 in0.0 mm
02:56 AM 28.9°F-1.7°C 26.4°F-3.1°C 90% 1.0 mph NW1.6 kmh NW 3.1 mph5.0 kmh 24.95 in844.9 mb 0.00 in0.0 mm 0.00 in/hr0.0 mm/hr 0.00 in0.0 mm
02:51 AM 29.1°F-1.6°C 26.6°F-3.0°C 90% 4.0 mph WNW6.4 kmh WNW 4.9 mph7.9 kmh 24.95 in844.9 mb 0.00 in0.0 mm 0.00 in/hr0.0 mm/hr 0.00 in0.0 mm
02:46 AM 28.9°F-1.7°C 26.4°F-3.1°C 90% 5.0 mph WNW8.0 kmh WNW 8.7 mph14.0 kmh 24.95 in844.9 mb 0.00 in0.0 mm 0.00 in/hr0.0 mm/hr 0.00 in0.0 mm
02:41 AM 29.1°F-1.6°C 26.8°F-2.9°C 91% 6.0 mph W9.7 kmh W 8.3 mph13.4 kmh 24.95 in844.9 mb 0.00 in0.0 mm 0.00 in/hr0.0 mm/hr 0.00 in0.0 mm
02:36 AM 28.9°F-1.7°C 26.6°F-3.0°C 91% 5.0 mph NE8.0 kmh NE 9.6 mph15.4 kmh 24.95 in844.9 mb 0.00 in0.0 mm 0.00 in/hr0.0 mm/hr 0.00 in0.0 mm
02:31 AM 29.3°F-1.5°C 27.9°F-2.3°C 94% 4.0 mph E6.4 kmh E 5.4 mph8.7 kmh 24.95 in844.9 mb 0.00 in0.0 mm 0.00 in/hr0.0 mm/hr 0.00 in0.0 mm
02:26 AM 28.9°F-1.7°C 27.5°F-2.5°C 94% 3.0 mph E4.8 kmh E 4.9 mph7.9 kmh 24.95 in844.9 mb 0.00 in0.0 mm 0.00 in/hr0.0 mm/hr 0.00 in0.0 mm
02:21 AM 28.4°F-2.0°C 26.6°F-3.0°C 93% 4.0 mph E6.4 kmh E 4.9 mph7.9 kmh 24.95 in844.9 mb 0.00 in0.0 mm 0.00 in/hr0.0 mm/hr 0.00 in0.0 mm
02:16 AM 28.2°F-2.1°C 26.8°F-2.9°C 94% 5.0 mph E8.0 kmh E 7.4 mph11.9 kmh 24.95 in844.9 mb 0.00 in0.0 mm 0.00 in/hr0.0 mm/hr 0.00 in0.0 mm
02:11 AM 28.4°F-2.0°C 27.0°F-2.8°C 94% 5.0 mph E8.0 kmh E 6.9 mph11.1 kmh 24.95 in844.9 mb 0.00 in0.0 mm 0.00 in/hr0.0 mm/hr 0.00 in0.0 mm
02:06 AM 28.4°F-2.0°C 26.6°F-3.0°C 93% 5.0 mph ESE8.0 kmh ESE 7.4 mph11.9 kmh 24.95 in844.9 mb 0.00 in0.0 mm 0.00 in/hr0.0 mm/hr 0.00 in0.0 mm
02:01 AM 28.4°F-2.0°C 26.6°F-3.0°C 93% 4.0 mph SE6.4 kmh SE 6.9 mph11.1 kmh 24.95 in844.9 mb 0.00 in0.0 mm 0.00 in/hr0.0 mm/hr 0.00 in0.0 mm
01:56 AM 28.4°F-2.0°C 26.4°F-3.1°C 92% 3.0 mph SE4.8 kmh SE 4.5 mph7.2 kmh 24.98 in845.9 mb 0.00 in0.0 mm 0.00 in/hr0.0 mm/hr 0.00 in0.0 mm
01:51 AM 28.4°F-2.0°C 26.4°F-3.1°C 92% 4.0 mph SE6.4 kmh SE 4.9 mph7.9 kmh 24.98 in845.9 mb 0.00 in0.0 mm 0.00 in/hr0.0 mm/hr 0.00 in0.0 mm
01:46 AM 28.6°F-1.9°C 26.2°F-3.2°C 91% 6.0 mph SE9.7 kmh SE 8.3 mph13.4 kmh 24.98 in845.9 mb 0.00 in0.0 mm 0.00 in/hr0.0 mm/hr 0.00 in0.0 mm
01:41 AM 28.6°F-1.9°C 26.2°F-3.2°C 91% 8.0 mph SSE12.9 kmh SSE 9.6 mph15.4 kmh 24.95 in844.9 mb 0.00 in0.0 mm 0.00 in/hr0.0 mm/hr 0.00 in0.0 mm
01:36 AM 28.8°F-1.8°C 26.4°F-3.1°C 91% 9.0 mph SSE14.5 kmh SSE 13.0 mph20.9 kmh 24.95 in844.9 mb 0.00 in0.0 mm 0.00 in/hr0.0 mm/hr 0.00 in0.0 mm
01:31 AM 28.9°F-1.7°C 27.1°F-2.7°C 93% 9.0 mph SSE14.5 kmh SSE 13.4 mph21.6 kmh 24.95 in844.9 mb 0.00 in0.0 mm 0.00 in/hr0.0 mm/hr 0.00 in0.0 mm
01:26 AM 28.9°F-1.7°C 27.7°F-2.4°C 95% 6.0 mph S9.7 kmh S 12.5 mph20.1 kmh 24.95 in844.9 mb 0.00 in0.0 mm 0.00 in/hr0.0 mm/hr 0.00 in0.0 mm
01:21 AM 28.9°F-1.7°C 27.9°F-2.3°C 96% 5.0 mph S8.0 kmh S 8.3 mph13.4 kmh 24.95 in844.9 mb 0.00 in0.0 mm 0.00 in/hr0.0 mm/hr 0.00 in0.0 mm
01:16 AM 28.8°F-1.8°C 27.5°F-2.5°C 95% 7.0 mph SSW11.3 kmh SSW 8.3 mph13.4 kmh 24.95 in844.9 mb 0.00 in0.0 mm 0.00 in/hr0.0 mm/hr 0.00 in0.0 mm
01:11 AM 28.2°F-2.1°C 27.0°F-2.8°C 95% 9.0 mph S14.5 kmh S 13.9 mph22.4 kmh 24.95 in844.9 mb 0.00 in0.0 mm 0.00 in/hr0.0 mm/hr 0.00 in0.0 mm
01:06 AM 28.4°F-2.0°C 27.0°F-2.8°C 94% 7.0 mph S11.3 kmh S 15.9 mph25.6 kmh 24.95 in844.9 mb 0.00 in0.0 mm 0.00 in/hr0.0 mm/hr 0.00 in0.0 mm
01:01 AM 29.7°F-1.3°C 27.9°F-2.3°C 93% 5.0 mph SE8.0 kmh SE 9.2 mph14.8 kmh 24.95 in844.9 mb 0.00 in0.0 mm 0.00 in/hr0.0 mm/hr 0.00 in0.0 mm
12:56 AM 30.0°F-1.1°C 28.2°F-2.1°C 93% 5.0 mph SE8.0 kmh SE 6.7 mph10.8 kmh 24.95 in844.9 mb 0.00 in0.0 mm 0.00 in/hr0.0 mm/hr 0.00 in0.0 mm
12:51 AM 30.0°F-1.1°C 28.2°F-2.1°C 93% 5.0 mph SE8.0 kmh SE 6.9 mph11.1 kmh 24.95 in844.9 mb 0.00 in0.0 mm 0.00 in/hr0.0 mm/hr 0.00 in0.0 mm
12:46 AM 29.8°F-1.2°C 28.0°F-2.2°C 93% 4.0 mph SE6.4 kmh SE 6.3 mph10.1 kmh 24.95 in844.9 mb 0.00 in0.0 mm 0.00 in/hr0.0 mm/hr 0.00 in0.0 mm
12:41 AM 29.8°F-1.2°C 28.4°F-2.0°C 94% 3.0 mph SE4.8 kmh SE 5.4 mph8.7 kmh 24.92 in843.9 mb 0.00 in0.0 mm 0.00 in/hr0.0 mm/hr 0.00 in0.0 mm
12:36 AM 29.7°F-1.3°C 28.2°F-2.1°C 94% 2.0 mph SE3.2 kmh SE 4.0 mph6.4 kmh 24.92 in843.9 mb 0.00 in0.0 mm 0.00 in/hr0.0 mm/hr 0.00 in0.0 mm
12:31 AM 29.7°F-1.3°C 28.2°F-2.1°C 94% 2.0 mph SE3.2 kmh SE 4.0 mph6.4 kmh 24.92 in843.9 mb 0.00 in0.0 mm 0.00 in/hr0.0 mm/hr 0.00 in0.0 mm
12:26 AM 29.7°F-1.3°C 28.2°F-2.1°C 94% 3.0 mph SE4.8 kmh SE 4.9 mph7.9 kmh 24.92 in843.9 mb 0.00 in0.0 mm 0.00 in/hr0.0 mm/hr 0.00 in0.0 mm
12:21 AM 29.7°F-1.3°C 28.2°F-2.1°C 94% 4.0 mph SE6.4 kmh SE 5.4 mph8.7 kmh 24.92 in843.9 mb 0.00 in0.0 mm 0.00 in/hr0.0 mm/hr 0.00 in0.0 mm
12:16 AM 29.7°F-1.3°C 28.2°F-2.1°C 94% 4.0 mph SE6.4 kmh SE 5.8 mph9.3 kmh 24.92 in843.9 mb 0.00 in0.0 mm 0.00 in/hr0.0 mm/hr 0.00 in0.0 mm
12:11 AM 29.7°F-1.3°C 28.2°F-2.1°C 94% 4.0 mph SE6.4 kmh SE 6.7 mph10.8 kmh 24.92 in843.9 mb 0.00 in0.0 mm 0.00 in/hr0.0 mm/hr 0.00 in0.0 mm
12:06 AM 29.7°F-1.3°C 28.2°F-2.1°C 94% 4.0 mph SE6.4 kmh SE 5.8 mph9.3 kmh 24.92 in843.9 mb 0.00 in0.0 mm 0.00 in/hr0.0 mm/hr 0.00 in0.0 mm
12:01 AM 29.7°F-1.3°C 28.2°F-2.1°C 94% 4.0 mph SE6.4 kmh SE 6.7 mph10.8 kmh 24.92 in843.9 mb 0.00 in0.0 mm 0.00 in/hr0.0 mm/hr 0.00 in0.0 mm